sensor_id;sensor_type;location;lat;lon;timestamp;P1;durP1;ratioP1;P2;durP2;ratioP2
74793;SDS011;63320;50.768;6.724;2023-09-19T00:00:16;5.90;;;1.50;;
74793;SDS011;63320;50.768;6.724;2023-09-19T00:02:43;7.55;;;1.80;;
74793;SDS011;63320;50.768;6.724;2023-09-19T00:05:08;6.35;;;1.40;;
74793;SDS011;63320;50.768;6.724;2023-09-19T00:07:34;7.13;;;1.48;;
74793;SDS011;63320;50.768;6.724;2023-09-19T00:09:59;4.88;;;1.42;;
74793;SDS011;63320;50.768;6.724;2023-09-19T00:12:24;4.22;;;1.25;;
74793;SDS011;63320;50.768;6.724;2023-09-19T00:14:50;6.57;;;1.40;;
74793;SDS011;63320;50.768;6.724;2023-09-19T00:17:15;7.28;;;1.40;;
74793;SDS011;63320;50.768;6.724;2023-09-19T00:19:42;6.18;;;1.48;;
74793;SDS011;63320;50.768;6.724;2023-09-19T00:22:07;6.63;;;1.55;;
74793;SDS011;63320;50.768;6.724;2023-09-19T00:24:32;6.65;;;1.20;;
74793;SDS011;63320;50.768;6.724;2023-09-19T00:26:57;5.50;;;1.40;;
74793;SDS011;63320;50.768;6.724;2023-09-19T00:29:23;6.22;;;1.40;;
74793;SDS011;63320;50.768;6.724;2023-09-19T00:31:48;6.68;;;1.35;;
74793;SDS011;63320;50.768;6.724;2023-09-19T00:34:14;7.28;;;1.58;;
74793;SDS011;63320;50.768;6.724;2023-09-19T00:36:40;7.00;;;1.48;;
74793;SDS011;63320;50.768;6.724;2023-09-19T00:39:06;10.23;;;1.50;;
74793;SDS011;63320;50.768;6.724;2023-09-19T00:41:31;7.72;;;1.40;;
74793;SDS011;63320;50.768;6.724;2023-09-19T00:43:57;6.57;;;1.27;;
74793;SDS011;63320;50.768;6.724;2023-09-19T00:46:22;7.15;;;1.52;;
74793;SDS011;63320;50.768;6.724;2023-09-19T00:48:47;9.75;;;1.70;;
74793;SDS011;63320;50.768;6.724;2023-09-19T00:51:14;6.85;;;1.45;;
74793;SDS011;63320;50.768;6.724;2023-09-19T00:53:43;5.38;;;1.52;;
74793;SDS011;63320;50.768;6.724;2023-09-19T00:56:09;7.30;;;1.30;;
74793;SDS011;63320;50.768;6.724;2023-09-19T00:58:34;6.35;;;1.58;;
74793;SDS011;63320;50.768;6.724;2023-09-19T01:01:00;7.40;;;1.40;;
74793;SDS011;63320;50.768;6.724;2023-09-19T01:03:26;6.78;;;1.60;;
74793;SDS011;63320;50.768;6.724;2023-09-19T01:05:52;7.85;;;1.65;;
74793;SDS011;63320;50.768;6.724;2023-09-19T01:08:18;6.72;;;1.55;;
74793;SDS011;63320;50.768;6.724;2023-09-19T01:10:46;8.32;;;1.73;;
74793;SDS011;63320;50.768;6.724;2023-09-19T01:13:20;6.80;;;1.45;;
74793;SDS011;63320;50.768;6.724;2023-09-19T01:15:54;7.93;;;1.65;;
74793;SDS011;63320;50.768;6.724;2023-09-19T01:18:27;7.00;;;1.40;;
74793;SDS011;63320;50.768;6.724;2023-09-19T01:21:01;6.30;;;1.30;;
74793;SDS011;63320;50.768;6.724;2023-09-19T01:23:39;9.50;;;1.40;;
74793;SDS011;63320;50.768;6.724;2023-09-19T01:26:22;8.95;;;1.45;;
74793;SDS011;63320;50.768;6.724;2023-09-19T01:29:13;9.35;;;1.67;;
74793;SDS011;63320;50.768;6.724;2023-09-19T01:31:49;10.48;;;1.67;;
74793;SDS011;63320;50.768;6.724;2023-09-19T01:34:16;10.30;;;1.85;;
74793;SDS011;63320;50.768;6.724;2023-09-19T01:36:42;11.00;;;1.80;;
74793;SDS011;63320;50.768;6.724;2023-09-19T01:39:07;9.65;;;1.65;;
74793;SDS011;63320;50.768;6.724;2023-09-19T01:41:41;8.68;;;1.92;;
74793;SDS011;63320;50.768;6.724;2023-09-19T01:44:23;13.95;;;1.80;;
74793;SDS011;63320;50.768;6.724;2023-09-19T01:46:55;6.53;;;2.08;;
74793;SDS011;63320;50.768;6.724;2023-09-19T01:49:27;10.02;;;1.85;;
74793;SDS011;63320;50.768;6.724;2023-09-19T01:52:04;8.27;;;1.67;;
74793;SDS011;63320;50.768;6.724;2023-09-19T01:54:36;9.88;;;1.58;;
74793;SDS011;63320;50.768;6.724;2023-09-19T01:57:09;9.90;;;1.98;;
74793;SDS011;63320;50.768;6.724;2023-09-19T01:59:43;10.80;;;1.92;;
74793;SDS011;63320;50.768;6.724;2023-09-19T02:02:14;11.50;;;1.67;;
74793;SDS011;63320;50.768;6.724;2023-09-19T02:04:41;8.00;;;1.55;;
74793;SDS011;63320;50.768;6.724;2023-09-19T02:07:07;5.95;;;1.63;;
74793;SDS011;63320;50.768;6.724;2023-09-19T02:09:32;10.02;;;1.90;;
74793;SDS011;63320;50.768;6.724;2023-09-19T02:11:58;10.90;;;2.00;;
74793;SDS011;63320;50.768;6.724;2023-09-19T02:14:23;9.32;;;1.73;;
74793;SDS011;63320;50.768;6.724;2023-09-19T02:16:48;10.35;;;2.72;;
74793;SDS011;63320;50.768;6.724;2023-09-19T02:19:15;8.43;;;1.60;;
74793;SDS011;63320;50.768;6.724;2023-09-19T02:21:41;10.07;;;1.88;;
74793;SDS011;63320;50.768;6.724;2023-09-19T02:24:06;12.20;;;2.00;;
74793;SDS011;63320;50.768;6.724;2023-09-19T02:26:32;10.35;;;1.85;;
74793;SDS011;63320;50.768;6.724;2023-09-19T02:28:57;8.50;;;1.85;;
74793;SDS011;63320;50.768;6.724;2023-09-19T02:31:22;8.73;;;1.67;;
74793;SDS011;63320;50.768;6.724;2023-09-19T02:33:48;10.20;;;2.00;;
74793;SDS011;63320;50.768;6.724;2023-09-19T02:36:14;11.70;;;2.35;;
74793;SDS011;63320;50.768;6.724;2023-09-19T02:38:40;10.50;;;1.98;;
74793;SDS011;63320;50.768;6.724;2023-09-19T02:41:05;10.60;;;2.17;;
74793;SDS011;63320;50.768;6.724;2023-09-19T02:43:31;8.43;;;1.80;;
74793;SDS011;63320;50.768;6.724;2023-09-19T02:45:56;10.93;;;2.08;;
74793;SDS011;63320;50.768;6.724;2023-09-19T02:48:21;9.15;;;1.50;;
74793;SDS011;63320;50.768;6.724;2023-09-19T02:50:49;9.77;;;1.65;;
74793;SDS011;63320;50.768;6.724;2023-09-19T02:53:16;11.73;;;2.30;;
74793;SDS011;63320;50.768;6.724;2023-09-19T02:55:41;10.55;;;1.77;;
74793;SDS011;63320;50.768;6.724;2023-09-19T02:58:07;10.30;;;2.00;;
74793;SDS011;63320;50.768;6.724;2023-09-19T03:00:32;10.60;;;1.80;;
74793;SDS011;63320;50.768;6.724;2023-09-19T03:02:57;9.70;;;2.13;;
74793;SDS011;63320;50.768;6.724;2023-09-19T03:05:23;10.82;;;2.03;;
74793;SDS011;63320;50.768;6.724;2023-09-19T03:07:48;14.02;;;2.47;;
74793;SDS011;63320;50.768;6.724;2023-09-19T03:10:16;8.38;;;1.67;;
74793;SDS011;63320;50.768;6.724;2023-09-19T03:12:41;9.35;;;2.13;;
74793;SDS011;63320;50.768;6.724;2023-09-19T03:15:07;10.93;;;2.20;;
74793;SDS011;63320;50.768;6.724;2023-09-19T03:17:32;14.27;;;2.13;;
74793;SDS011;63320;50.768;6.724;2023-09-19T03:19:58;11.80;;;2.10;;
74793;SDS011;63320;50.768;6.724;2023-09-19T03:22:23;9.35;;;1.65;;
74793;SDS011;63320;50.768;6.724;2023-09-19T03:24:48;10.02;;;1.98;;
74793;SDS011;63320;50.768;6.724;2023-09-19T03:27:15;9.13;;;1.98;;
74793;SDS011;63320;50.768;6.724;2023-09-19T03:29:41;11.20;;;1.95;;
74793;SDS011;63320;50.768;6.724;2023-09-19T03:32:06;13.02;;;1.85;;
74793;SDS011;63320;50.768;6.724;2023-09-19T03:34:31;9.90;;;2.20;;
74793;SDS011;63320;50.768;6.724;2023-09-19T03:36:57;10.27;;;2.17;;
74793;SDS011;63320;50.768;6.724;2023-09-19T03:39:22;11.25;;;2.10;;
74793;SDS011;63320;50.768;6.724;2023-09-19T03:41:48;9.70;;;2.00;;
74793;SDS011;63320;50.768;6.724;2023-09-19T03:44:14;12.02;;;2.08;;
74793;SDS011;63320;50.768;6.724;2023-09-19T03:46:40;11.73;;;2.30;;
74793;SDS011;63320;50.768;6.724;2023-09-19T03:49:05;12.32;;;1.90;;
74793;SDS011;63320;50.768;6.724;2023-09-19T03:51:31;7.22;;;1.80;;
74793;SDS011;63320;50.768;6.724;2023-09-19T03:53:56;9.82;;;1.80;;
74793;SDS011;63320;50.768;6.724;2023-09-19T03:56:21;7.75;;;1.42;;
74793;SDS011;63320;50.768;6.724;2023-09-19T03:58:47;9.90;;;1.85;;
74793;SDS011;63320;50.768;6.724;2023-09-19T04:01:13;11.10;;;2.20;;
74793;SDS011;63320;50.768;6.724;2023-09-19T04:03:39;12.52;;;2.13;;
74793;SDS011;63320;50.768;6.724;2023-09-19T04:06:04;11.65;;;1.92;;
74793;SDS011;63320;50.768;6.724;2023-09-19T04:08:29;11.23;;;2.00;;
74793;SDS011;63320;50.768;6.724;2023-09-19T04:10:55;9.82;;;2.00;;
74793;SDS011;63320;50.768;6.724;2023-09-19T04:13:20;9.35;;;2.10;;
74793;SDS011;63320;50.768;6.724;2023-09-19T04:15:45;12.38;;;2.35;;
74793;SDS011;63320;50.768;6.724;2023-09-19T04:18:12;10.15;;;1.70;;
74793;SDS011;63320;50.768;6.724;2023-09-19T04:20:37;13.32;;;2.20;;
74793;SDS011;63320;50.768;6.724;2023-09-19T04:23:03;11.18;;;1.65;;
74793;SDS011;63320;50.768;6.724;2023-09-19T04:25:28;9.02;;;2.10;;
74793;SDS011;63320;50.768;6.724;2023-09-19T04:27:53;9.98;;;1.73;;
74793;SDS011;63320;50.768;6.724;2023-09-19T04:30:19;11.82;;;1.60;;
74793;SDS011;63320;50.768;6.724;2023-09-19T04:32:44;10.23;;;2.10;;
74793;SDS011;63320;50.768;6.724;2023-09-19T04:35:11;8.32;;;1.77;;
74793;SDS011;63320;50.768;6.724;2023-09-19T04:37:37;12.05;;;2.38;;
74793;SDS011;63320;50.768;6.724;2023-09-19T04:40:03;12.55;;;2.00;;
74793;SDS011;63320;50.768;6.724;2023-09-19T04:42:29;7.60;;;1.85;;
74793;SDS011;63320;50.768;6.724;2023-09-19T04:44:54;9.82;;;1.90;;
74793;SDS011;63320;50.768;6.724;2023-09-19T04:47:20;7.82;;;1.70;;
74793;SDS011;63320;50.768;6.724;2023-09-19T04:49:45;12.85;;;2.22;;
74793;SDS011;63320;50.768;6.724;2023-09-19T04:52:12;9.98;;;2.17;;
74793;SDS011;63320;50.768;6.724;2023-09-19T04:54:37;9.27;;;1.55;;
74793;SDS011;63320;50.768;6.724;2023-09-19T04:57:03;13.57;;;2.13;;
74793;SDS011;63320;50.768;6.724;2023-09-19T04:59:28;10.52;;;1.70;;
74793;SDS011;63320;50.768;6.724;2023-09-19T05:01:54;11.57;;;1.85;;
74793;SDS011;63320;50.768;6.724;2023-09-19T05:04:19;14.25;;;2.55;;
74793;SDS011;63320;50.768;6.724;2023-09-19T05:06:44;7.90;;;1.40;;
74793;SDS011;63320;50.768;6.724;2023-09-19T05:09:11;8.32;;;1.70;;
74793;SDS011;63320;50.768;6.724;2023-09-19T05:11:36;12.82;;;2.47;;
74793;SDS011;63320;50.768;6.724;2023-09-19T05:14:02;10.48;;;2.25;;
74793;SDS011;63320;50.768;6.724;2023-09-19T05:16:28;10.60;;;1.98;;
74793;SDS011;63320;50.768;6.724;2023-09-19T05:18:53;11.10;;;2.17;;
74793;SDS011;63320;50.768;6.724;2023-09-19T05:21:19;11.70;;;2.53;;
74793;SDS011;63320;50.768;6.724;2023-09-19T05:23:44;12.43;;;2.22;;
74793;SDS011;63320;50.768;6.724;2023-09-19T05:26:11;9.50;;;2.03;;
74793;SDS011;63320;50.768;6.724;2023-09-19T05:28:36;13.25;;;2.15;;
74793;SDS011;63320;50.768;6.724;2023-09-19T05:31:01;10.25;;;1.85;;
74793;SDS011;63320;50.768;6.724;2023-09-19T05:33:26;11.32;;;2.00;;
74793;SDS011;63320;50.768;6.724;2023-09-19T05:35:52;11.60;;;2.10;;
74793;SDS011;63320;50.768;6.724;2023-09-19T05:38:17;11.95;;;2.50;;
74793;SDS011;63320;50.768;6.724;2023-09-19T05:40:42;9.52;;;1.83;;
74793;SDS011;63320;50.768;6.724;2023-09-19T05:43:10;10.65;;;2.35;;
74793;SDS011;63320;50.768;6.724;2023-09-19T05:45:36;10.88;;;2.50;;
74793;SDS011;63320;50.768;6.724;2023-09-19T05:48:07;10.52;;;1.98;;
74793;SDS011;63320;50.768;6.724;2023-09-19T05:50:33;11.38;;;2.17;;
74793;SDS011;63320;50.768;6.724;2023-09-19T05:52:58;11.70;;;2.28;;
74793;SDS011;63320;50.768;6.724;2023-09-19T05:55:24;11.13;;;2.20;;
74793;SDS011;63320;50.768;6.724;2023-09-19T05:57:49;9.50;;;2.22;;
74793;SDS011;63320;50.768;6.724;2023-09-19T06:00:16;12.80;;;1.85;;
74793;SDS011;63320;50.768;6.724;2023-09-19T06:02:42;12.82;;;1.95;;
74793;SDS011;63320;50.768;6.724;2023-09-19T06:05:07;10.93;;;2.03;;
74793;SDS011;63320;50.768;6.724;2023-09-19T06:07:32;14.45;;;2.00;;
74793;SDS011;63320;50.768;6.724;2023-09-19T06:09:58;16.20;;;2.22;;
74793;SDS011;63320;50.768;6.724;2023-09-19T06:12:23;12.77;;;1.92;;
74793;SDS011;63320;50.768;6.724;2023-09-19T06:14:49;19.05;;;2.95;;
74793;SDS011;63320;50.768;6.724;2023-09-19T06:17:15;10.05;;;1.90;;
74793;SDS011;63320;50.768;6.724;2023-09-19T06:19:41;14.23;;;2.15;;
74793;SDS011;63320;50.768;6.724;2023-09-19T06:22:06;10.88;;;2.10;;
74793;SDS011;63320;50.768;6.724;2023-09-19T06:24:32;14.23;;;2.63;;
74793;SDS011;63320;50.768;6.724;2023-09-19T06:26:57;12.45;;;2.33;;
74793;SDS011;63320;50.768;6.724;2023-09-19T06:29:22;10.10;;;2.42;;
74793;SDS011;63320;50.768;6.724;2023-09-19T06:31:48;11.38;;;2.00;;
74793;SDS011;63320;50.768;6.724;2023-09-19T06:34:14;10.38;;;1.95;;
74793;SDS011;63320;50.768;6.724;2023-09-19T06:36:40;13.05;;;2.58;;
74793;SDS011;63320;50.768;6.724;2023-09-19T06:39:05;10.05;;;2.25;;
74793;SDS011;63320;50.768;6.724;2023-09-19T06:41:30;7.60;;;1.73;;
74793;SDS011;63320;50.768;6.724;2023-09-19T06:43:56;10.90;;;2.17;;
74793;SDS011;63320;50.768;6.724;2023-09-19T06:46:21;7.57;;;1.60;;
74793;SDS011;63320;50.768;6.724;2023-09-19T06:48:46;15.60;;;3.70;;
74793;SDS011;63320;50.768;6.724;2023-09-19T06:51:13;10.88;;;2.40;;
74793;SDS011;63320;50.768;6.724;2023-09-19T06:53:38;13.65;;;2.60;;
74793;SDS011;63320;50.768;6.724;2023-09-19T06:56:04;11.77;;;3.92;;
74793;SDS011;63320;50.768;6.724;2023-09-19T06:58:29;12.65;;;3.88;;
74793;SDS011;63320;50.768;6.724;2023-09-19T07:00:54;13.90;;;3.40;;
74793;SDS011;63320;50.768;6.724;2023-09-19T07:03:20;9.10;;;2.20;;
74793;SDS011;63320;50.768;6.724;2023-09-19T07:05:46;11.30;;;2.33;;
74793;SDS011;63320;50.768;6.724;2023-09-19T07:08:14;13.57;;;2.70;;
74793;SDS011;63320;50.768;6.724;2023-09-19T07:10:39;10.65;;;2.15;;
74793;SDS011;63320;50.768;6.724;2023-09-19T07:13:06;12.15;;;2.22;;
74793;SDS011;63320;50.768;6.724;2023-09-19T07:15:33;11.07;;;1.90;;
74793;SDS011;63320;50.768;6.724;2023-09-19T07:17:58;10.07;;;2.17;;
74793;SDS011;63320;50.768;6.724;2023-09-19T07:20:24;12.15;;;2.75;;
74793;SDS011;63320;50.768;6.724;2023-09-19T07:22:49;12.00;;;2.30;;
74793;SDS011;63320;50.768;6.724;2023-09-19T07:25:16;9.02;;;1.88;;
74793;SDS011;63320;50.768;6.724;2023-09-19T07:27:42;10.73;;;2.00;;
74793;SDS011;63320;50.768;6.724;2023-09-19T07:30:08;11.75;;;2.33;;
74793;SDS011;63320;50.768;6.724;2023-09-19T07:32:34;8.73;;;2.13;;
74793;SDS011;63320;50.768;6.724;2023-09-19T07:35:00;12.82;;;2.55;;
74793;SDS011;63320;50.768;6.724;2023-09-19T07:37:25;9.00;;;2.03;;
74793;SDS011;63320;50.768;6.724;2023-09-19T07:39:51;11.07;;;2.45;;
74793;SDS011;63320;50.768;6.724;2023-09-19T07:42:17;12.77;;;2.50;;
74793;SDS011;63320;50.768;6.724;2023-09-19T07:44:43;9.88;;;1.90;;
74793;SDS011;63320;50.768;6.724;2023-09-19T07:47:08;9.80;;;1.77;;
74793;SDS011;63320;50.768;6.724;2023-09-19T07:49:34;11.90;;;2.10;;
74793;SDS011;63320;50.768;6.724;2023-09-19T07:51:59;9.35;;;1.88;;
74793;SDS011;63320;50.768;6.724;2023-09-19T07:54:24;11.25;;;1.67;;
74793;SDS011;63320;50.768;6.724;2023-09-19T07:56:50;12.20;;;2.03;;
74793;SDS011;63320;50.768;6.724;2023-09-19T07:59:16;10.02;;;1.83;;
74793;SDS011;63320;50.768;6.724;2023-09-19T08:01:42;9.32;;;1.73;;
74793;SDS011;63320;50.768;6.724;2023-09-19T08:04:07;11.32;;;2.28;;
74793;SDS011;63320;50.768;6.724;2023-09-19T08:06:32;9.68;;;2.08;;
74793;SDS011;63320;50.768;6.724;2023-09-19T08:08:58;8.45;;;1.77;;
74793;SDS011;63320;50.768;6.724;2023-09-19T08:11:23;13.52;;;2.10;;
74793;SDS011;63320;50.768;6.724;2023-09-19T08:13:48;8.50;;;1.70;;
74793;SDS011;63320;50.768;6.724;2023-09-19T08:16:15;10.23;;;1.98;;
74793;SDS011;63320;50.768;6.724;2023-09-19T08:18:41;10.23;;;1.88;;
74793;SDS011;63320;50.768;6.724;2023-09-19T08:21:06;8.80;;;2.00;;
74793;SDS011;63320;50.768;6.724;2023-09-19T08:23:32;11.10;;;1.80;;
74793;SDS011;63320;50.768;6.724;2023-09-19T08:25:57;14.50;;;2.55;;
74793;SDS011;63320;50.768;6.724;2023-09-19T08:28:23;11.23;;;2.10;;
74793;SDS011;63320;50.768;6.724;2023-09-19T08:30:48;12.18;;;2.15;;
74793;SDS011;63320;50.768;6.724;2023-09-19T08:33:15;11.75;;;2.28;;
74793;SDS011;63320;50.768;6.724;2023-09-19T08:35:40;11.27;;;1.98;;
74793;SDS011;63320;50.768;6.724;2023-09-19T08:38:06;8.10;;;1.90;;
74793;SDS011;63320;50.768;6.724;2023-09-19T08:40:31;10.00;;;1.70;;
74793;SDS011;63320;50.768;6.724;2023-09-19T08:42:57;9.02;;;2.05;;
74793;SDS011;63320;50.768;6.724;2023-09-19T08:45:22;10.88;;;2.00;;
74793;SDS011;63320;50.768;6.724;2023-09-19T08:47:50;9.10;;;1.80;;
74793;SDS011;63320;50.768;6.724;2023-09-19T08:50:25;9.07;;;1.90;;
74793;SDS011;63320;50.768;6.724;2023-09-19T08:52:52;14.07;;;2.50;;
74793;SDS011;63320;50.768;6.724;2023-09-19T08:55:20;8.07;;;1.65;;
74793;SDS011;63320;50.768;6.724;2023-09-19T08:57:51;12.35;;;1.95;;
74793;SDS011;63320;50.768;6.724;2023-09-19T09:00:20;10.18;;;1.83;;
74793;SDS011;63320;50.768;6.724;2023-09-19T09:02:47;11.57;;;2.13;;
74793;SDS011;63320;50.768;6.724;2023-09-19T09:05:14;8.90;;;1.98;;
74793;SDS011;63320;50.768;6.724;2023-09-19T09:07:42;11.18;;;1.70;;
74793;SDS011;63320;50.768;6.724;2023-09-19T09:10:09;7.72;;;1.60;;
74793;SDS011;63320;50.768;6.724;2023-09-19T09:12:35;8.32;;;1.52;;
74793;SDS011;63320;50.768;6.724;2023-09-19T09:15:00;7.85;;;1.65;;
74793;SDS011;63320;50.768;6.724;2023-09-19T09:17:26;6.68;;;1.60;;
74793;SDS011;63320;50.768;6.724;2023-09-19T09:19:51;8.73;;;1.60;;
74793;SDS011;63320;50.768;6.724;2023-09-19T09:22:17;8.23;;;1.58;;
74793;SDS011;63320;50.768;6.724;2023-09-19T09:24:52;7.30;;;1.73;;
74793;SDS011;63320;50.768;6.724;2023-09-19T09:27:17;9.57;;;1.77;;
74793;SDS011;63320;50.768;6.724;2023-09-19T09:29:43;4.75;;;1.50;;
74793;SDS011;63320;50.768;6.724;2023-09-19T09:32:19;13.60;;;2.55;;
74793;SDS011;63320;50.768;6.724;2023-09-19T09:34:47;7.30;;;1.80;;
74793;SDS011;63320;50.768;6.724;2023-09-19T09:37:14;7.07;;;1.92;;
74793;SDS011;63320;50.768;6.724;2023-09-19T09:39:39;8.52;;;2.20;;
74793;SDS011;63320;50.768;6.724;2023-09-19T09:42:06;4.80;;;1.48;;
74793;SDS011;63320;50.768;6.724;2023-09-19T09:44:31;5.80;;;1.60;;
74793;SDS011;63320;50.768;6.724;2023-09-19T09:46:57;8.65;;;2.15;;
74793;SDS011;63320;50.768;6.724;2023-09-19T09:49:22;8.93;;;1.48;;
74793;SDS011;63320;50.768;6.724;2023-09-19T09:51:49;7.25;;;1.60;;
74793;SDS011;63320;50.768;6.724;2023-09-19T09:54:16;6.90;;;1.50;;
74793;SDS011;63320;50.768;6.724;2023-09-19T09:56:55;6.68;;;1.50;;
74793;SDS011;63320;50.768;6.724;2023-09-19T09:59:22;7.85;;;1.48;;
74793;SDS011;63320;50.768;6.724;2023-09-19T10:01:47;8.48;;;1.73;;
74793;SDS011;63320;50.768;6.724;2023-09-19T10:04:15;5.63;;;1.50;;
74793;SDS011;63320;50.768;6.724;2023-09-19T10:09:20;8.13;;;1.50;;
74793;SDS011;63320;50.768;6.724;2023-09-19T10:11:46;7.93;;;1.85;;
74793;SDS011;63320;50.768;6.724;2023-09-19T10:14:12;5.78;;;1.58;;
74793;SDS011;63320;50.768;6.724;2023-09-19T10:16:44;6.80;;;1.90;;
74793;SDS011;63320;50.768;6.724;2023-09-19T10:19:12;11.43;;;1.60;;
74793;SDS011;63320;50.768;6.724;2023-09-19T10:21:41;7.60;;;1.48;;
74793;SDS011;63320;50.768;6.724;2023-09-19T10:24:07;6.90;;;1.60;;
74793;SDS011;63320;50.768;6.724;2023-09-19T10:26:34;6.47;;;1.33;;
74793;SDS011;63320;50.768;6.724;2023-09-19T10:29:01;8.65;;;1.75;;
74793;SDS011;63320;50.768;6.724;2023-09-19T10:31:26;6.10;;;1.33;;
74793;SDS011;63320;50.768;6.724;2023-09-19T10:33:54;9.98;;;1.92;;
74793;SDS011;63320;50.768;6.724;2023-09-19T10:36:21;8.15;;;1.48;;
74793;SDS011;63320;50.768;6.724;2023-09-19T10:38:49;6.20;;;1.35;;
74793;SDS011;63320;50.768;6.724;2023-09-19T10:41:17;6.25;;;1.42;;
74793;SDS011;63320;50.768;6.724;2023-09-19T10:43:46;6.38;;;1.60;;
74793;SDS011;63320;50.768;6.724;2023-09-19T10:46:13;9.45;;;1.83;;
74793;SDS011;63320;50.768;6.724;2023-09-19T10:48:39;8.05;;;1.80;;
74793;SDS011;63320;50.768;6.724;2023-09-19T10:51:08;5.28;;;1.40;;
74793;SDS011;63320;50.768;6.724;2023-09-19T10:53:40;6.90;;;1.60;;
74793;SDS011;63320;50.768;6.724;2023-09-19T10:56:10;6.80;;;1.83;;
74793;SDS011;63320;50.768;6.724;2023-09-19T10:58:40;8.80;;;2.33;;
74793;SDS011;63320;50.768;6.724;2023-09-19T11:01:05;7.82;;;1.70;;
74793;SDS011;63320;50.768;6.724;2023-09-19T11:03:31;6.68;;;1.70;;
74793;SDS011;63320;50.768;6.724;2023-09-19T11:06:03;8.07;;;1.88;;
74793;SDS011;63320;50.768;6.724;2023-09-19T11:08:31;8.85;;;2.17;;
74793;SDS011;63320;50.768;6.724;2023-09-19T11:14:16;9.10;;;1.85;;
74793;SDS011;63320;50.768;6.724;2023-09-19T11:25:44;5.47;;;1.58;;
74793;SDS011;63320;50.768;6.724;2023-09-19T11:30:57;7.38;;;1.63;;
74793;SDS011;63320;50.768;6.724;2023-09-19T11:33:22;10.57;;;1.92;;
74793;SDS011;63320;50.768;6.724;2023-09-19T11:35:58;10.02;;;1.65;;
74793;SDS011;63320;50.768;6.724;2023-09-19T11:41:37;7.03;;;1.60;;
74793;SDS011;63320;50.768;6.724;2023-09-19T11:46:58;5.38;;;1.40;;
74793;SDS011;63320;50.768;6.724;2023-09-19T11:49:25;7.25;;;1.60;;
74793;SDS011;63320;50.768;6.724;2023-09-19T11:51:52;7.60;;;1.42;;
74793;SDS011;63320;50.768;6.724;2023-09-19T11:54:18;7.00;;;1.60;;
74793;SDS011;63320;50.768;6.724;2023-09-19T11:56:45;6.03;;;1.35;;
74793;SDS011;63320;50.768;6.724;2023-09-19T11:59:11;9.95;;;1.80;;
74793;SDS011;63320;50.768;6.724;2023-09-19T12:01:37;6.35;;;1.58;;
74793;SDS011;63320;50.768;6.724;2023-09-19T12:04:07;7.28;;;1.77;;
74793;SDS011;63320;50.768;6.724;2023-09-19T12:06:35;6.28;;;1.85;;
74793;SDS011;63320;50.768;6.724;2023-09-19T12:09:01;7.00;;;1.88;;
74793;SDS011;63320;50.768;6.724;2023-09-19T12:11:28;7.18;;;1.73;;
74793;SDS011;63320;50.768;6.724;2023-09-19T12:13:56;5.97;;;1.77;;
74793;SDS011;63320;50.768;6.724;2023-09-19T12:16:22;9.27;;;2.80;;
74793;SDS011;63320;50.768;6.724;2023-09-19T12:18:47;5.60;;;1.60;;
74793;SDS011;63320;50.768;6.724;2023-09-19T12:21:27;7.20;;;1.77;;
74793;SDS011;63320;50.768;6.724;2023-09-19T12:26:38;8.20;;;1.80;;
74793;SDS011;63320;50.768;6.724;2023-09-19T12:29:06;5.82;;;1.35;;
74793;SDS011;63320;50.768;6.724;2023-09-19T12:31:36;7.32;;;1.35;;
74793;SDS011;63320;50.768;6.724;2023-09-19T12:34:01;6.88;;;1.55;;
74793;SDS011;63320;50.768;6.724;2023-09-19T12:36:29;6.80;;;1.30;;
74793;SDS011;63320;50.768;6.724;2023-09-19T12:38:55;5.40;;;1.20;;
74793;SDS011;63320;50.768;6.724;2023-09-19T12:41:20;7.30;;;1.40;;
74793;SDS011;63320;50.768;6.724;2023-09-19T12:43:46;6.00;;;1.40;;
74793;SDS011;63320;50.768;6.724;2023-09-19T12:46:13;6.13;;;1.27;;
74793;SDS011;63320;50.768;6.724;2023-09-19T12:48:38;7.50;;;1.60;;
74793;SDS011;63320;50.768;6.724;2023-09-19T12:51:04;5.65;;;1.38;;
74793;SDS011;63320;50.768;6.724;2023-09-19T12:53:31;6.25;;;1.25;;
74793;SDS011;63320;50.768;6.724;2023-09-19T12:55:58;5.03;;;1.48;;
74793;SDS011;63320;50.768;6.724;2023-09-19T12:58:24;8.90;;;1.73;;
74793;SDS011;63320;50.768;6.724;2023-09-19T13:00:49;5.93;;;1.20;;
74793;SDS011;63320;50.768;6.724;2023-09-19T13:03:24;6.95;;;1.35;;
74793;SDS011;63320;50.768;6.724;2023-09-19T13:05:52;7.65;;;1.60;;
74793;SDS011;63320;50.768;6.724;2023-09-19T13:08:18;8.43;;;1.30;;
74793;SDS011;63320;50.768;6.724;2023-09-19T13:10:59;5.55;;;1.25;;
74793;SDS011;63320;50.768;6.724;2023-09-19T13:13:25;5.57;;;1.45;;
74793;SDS011;63320;50.768;6.724;2023-09-19T13:15:51;4.97;;;1.10;;
74793;SDS011;63320;50.768;6.724;2023-09-19T13:18:17;4.93;;;1.17;;
74793;SDS011;63320;50.768;6.724;2023-09-19T13:20:43;6.55;;;1.20;;
74793;SDS011;63320;50.768;6.724;2023-09-19T13:23:29;5.38;;;1.15;;
74793;SDS011;63320;50.768;6.724;2023-09-19T13:25:54;6.93;;;0.98;;
74793;SDS011;63320;50.768;6.724;2023-09-19T13:28:19;5.40;;;1.15;;
74793;SDS011;63320;50.768;6.724;2023-09-19T13:30:45;6.38;;;1.30;;
74793;SDS011;63320;50.768;6.724;2023-09-19T13:33:10;8.40;;;1.00;;
74793;SDS011;63320;50.768;6.724;2023-09-19T13:35:38;4.88;;;1.10;;
74793;SDS011;63320;50.768;6.724;2023-09-19T13:38:03;4.53;;;1.20;;
74793;SDS011;63320;50.768;6.724;2023-09-19T13:40:29;4.97;;;1.30;;
74793;SDS011;63320;50.768;6.724;2023-09-19T13:42:55;6.25;;;1.20;;
74793;SDS011;63320;50.768;6.724;2023-09-19T13:45:20;4.65;;;1.10;;
74793;SDS011;63320;50.768;6.724;2023-09-19T13:47:45;4.57;;;1.30;;
74793;SDS011;63320;50.768;6.724;2023-09-19T13:50:11;5.93;;;1.30;;
74793;SDS011;63320;50.768;6.724;2023-09-19T13:52:37;5.13;;;1.45;;
74793;SDS011;63320;50.768;6.724;2023-09-19T13:55:03;6.50;;;1.85;;
74793;SDS011;63320;50.768;6.724;2023-09-19T13:57:29;5.70;;;1.40;;
74793;SDS011;63320;50.768;6.724;2023-09-19T13:59:54;6.57;;;1.20;;
74793;SDS011;63320;50.768;6.724;2023-09-19T14:02:20;5.75;;;1.33;;
74793;SDS011;63320;50.768;6.724;2023-09-19T14:04:45;6.38;;;1.33;;
74793;SDS011;63320;50.768;6.724;2023-09-19T14:07:11;4.50;;;1.20;;
74793;SDS011;63320;50.768;6.724;2023-09-19T14:09:38;5.80;;;1.30;;
74793;SDS011;63320;50.768;6.724;2023-09-19T14:12:03;5.35;;;1.00;;
74793;SDS011;63320;50.768;6.724;2023-09-19T14:14:29;4.32;;;1.05;;
74793;SDS011;63320;50.768;6.724;2023-09-19T14:16:55;4.07;;;1.00;;
74793;SDS011;63320;50.768;6.724;2023-09-19T14:19:20;4.80;;;1.27;;
74793;SDS011;63320;50.768;6.724;2023-09-19T14:21:46;6.13;;;1.02;;
74793;SDS011;63320;50.768;6.724;2023-09-19T14:24:16;5.82;;;1.00;;
74793;SDS011;63320;50.768;6.724;2023-09-19T14:26:43;2.80;;;0.70;;
74793;SDS011;63320;50.768;6.724;2023-09-19T14:29:08;4.55;;;0.93;;
74793;SDS011;63320;50.768;6.724;2023-09-19T14:31:34;7.13;;;1.00;;
74793;SDS011;63320;50.768;6.724;2023-09-19T14:34:02;6.22;;;1.23;;
74793;SDS011;63320;50.768;6.724;2023-09-19T14:36:27;6.25;;;1.67;;
74793;SDS011;63320;50.768;6.724;2023-09-19T14:38:53;4.25;;;1.10;;
74793;SDS011;63320;50.768;6.724;2023-09-19T14:41:18;7.30;;;2.03;;
74793;SDS011;63320;50.768;6.724;2023-09-19T14:43:45;4.30;;;1.17;;
74793;SDS011;63320;50.768;6.724;2023-09-19T14:46:10;6.82;;;1.35;;
74793;SDS011;63320;50.768;6.724;2023-09-19T14:48:36;4.32;;;0.95;;
74793;SDS011;63320;50.768;6.724;2023-09-19T14:51:01;3.90;;;1.05;;
74793;SDS011;63320;50.768;6.724;2023-09-19T14:53:27;8.70;;;1.25;;
74793;SDS011;63320;50.768;6.724;2023-09-19T14:55:52;5.40;;;1.08;;
74793;SDS011;63320;50.768;6.724;2023-09-19T14:58:18;5.57;;;1.05;;
74793;SDS011;63320;50.768;6.724;2023-09-19T15:00:44;5.78;;;1.10;;
74793;SDS011;63320;50.768;6.724;2023-09-19T15:03:10;5.60;;;1.00;;
74793;SDS011;63320;50.768;6.724;2023-09-19T15:05:35;4.57;;;1.13;;